createdAt,value
2023-05-05T00:01:56.023Z,83.50
2023-05-05T00:04:24.147Z,83.50
2023-05-05T00:06:51.329Z,83.60
2023-05-05T00:09:18.461Z,83.80
2023-05-05T00:11:45.579Z,83.60
2023-05-05T00:14:12.639Z,83.60
2023-05-05T00:16:39.992Z,83.50
2023-05-05T00:19:07.185Z,83.40
2023-05-05T00:21:34.221Z,83.90
2023-05-05T00:24:01.306Z,83.90
2023-05-05T00:26:28.437Z,84.10
2023-05-05T00:28:55.510Z,84.60
2023-05-05T00:31:22.637Z,84.50
2023-05-05T00:33:49.738Z,84.50
2023-05-05T00:36:16.811Z,84.60
2023-05-05T00:38:43.914Z,84.60
2023-05-05T00:41:11.157Z,84.20
2023-05-05T00:43:38.210Z,84.40
2023-05-05T00:46:23.110Z,84.30
2023-05-05T00:48:51.090Z,84.10
2023-05-05T00:51:19.274Z,84.10
2023-05-05T00:53:47.333Z,84.10
2023-05-05T00:56:19.416Z,84.00
2023-05-05T00:58:46.882Z,84.30
2023-05-05T01:01:15.185Z,85.40
2023-05-05T01:03:42.381Z,85.70
2023-05-05T01:06:26.259Z,85.80
2023-05-05T01:09:38.824Z,86.00
2023-05-05T01:12:17.741Z,86.20
2023-05-05T01:14:52.803Z,86.10
2023-05-05T01:17:25.554Z,86.00
2023-05-05T01:19:55.753Z,86.10
2023-05-05T01:22:32.359Z,86.40
2023-05-05T01:25:36.019Z,87.10
2023-05-05T01:28:30.523Z,86.80
2023-05-05T01:31:04.802Z,86.90
2023-05-05T01:33:37.595Z,86.10
2023-05-05T01:36:10.400Z,85.40
2023-05-05T01:38:43.809Z,85.10
2023-05-05T01:41:19.274Z,85.00
2023-05-05T01:43:50.162Z,85.10
2023-05-05T01:46:19.078Z,84.70
2023-05-05T01:48:48.908Z,84.60
2023-05-05T01:51:19.033Z,85.40
2023-05-05T01:53:47.167Z,84.70
2023-05-05T01:56:16.273Z,85.10
2023-05-05T01:58:44.985Z,86.10
2023-05-05T02:01:13.139Z,86.40
2023-05-05T02:03:41.942Z,86.60
2023-05-05T02:06:11.871Z,86.80
2023-05-05T02:08:41.594Z,86.70
2023-05-05T02:11:11.283Z,86.50
2023-05-05T02:13:42.413Z,86.50
2023-05-05T02:16:10.873Z,86.50
2023-05-05T02:18:38.831Z,86.30
2023-05-05T02:21:07.810Z,86.20
2023-05-05T02:23:36.260Z,86.00
2023-05-05T02:26:07.655Z,85.70
2023-05-05T02:28:54.463Z,85.60
2023-05-05T02:31:23.945Z,85.20
2023-05-05T02:33:52.184Z,84.90
2023-05-05T02:36:25.922Z,84.80
2023-05-05T02:38:58.934Z,84.60
2023-05-05T02:41:28.304Z,84.40
2023-05-05T02:43:57.770Z,84.60
2023-05-05T02:46:25.302Z,85.10
2023-05-05T02:48:52.392Z,84.50
2023-05-05T02:51:19.452Z,84.60
2023-05-05T02:53:46.864Z,85.20
2023-05-05T02:56:34.191Z,85.80
2023-05-05T02:59:16.613Z,86.40
2023-05-05T03:01:58.144Z,86.50
2023-05-05T03:04:54.762Z,86.40
2023-05-05T03:07:30.787Z,86.10
2023-05-05T03:10:09.489Z,86.30
2023-05-05T03:13:01.194Z,86.40
2023-05-05T03:15:40.912Z,86.40
2023-05-05T03:18:10.801Z,86.20
2023-05-05T03:20:41.578Z,86.20
2023-05-05T03:23:08.728Z,86.30
2023-05-05T03:25:47.057Z,85.50
2023-05-05T03:28:15.595Z,85.80
2023-05-05T03:30:43.013Z,85.10
2023-05-05T03:33:11.719Z,85.10
2023-05-05T03:35:38.798Z,85.00
2023-05-05T03:38:05.911Z,85.30
2023-05-05T03:40:43.577Z,85.40
2023-05-05T03:43:12.108Z,85.20
2023-05-05T03:45:39.280Z,85.30
2023-05-05T03:48:06.925Z,85.30
2023-05-05T03:50:34.082Z,85.30
2023-05-05T03:53:01.183Z,85.10
2023-05-05T03:55:28.250Z,85.90
2023-05-05T03:57:55.317Z,85.40
2023-05-05T04:00:22.474Z,86.30
2023-05-05T04:02:49.561Z,87.20
2023-05-05T04:05:16.817Z,87.40
2023-05-05T04:07:43.878Z,87.70
2023-05-05T04:10:11.738Z,87.80
2023-05-05T04:12:38.880Z,87.70
2023-05-05T04:15:06.833Z,87.60
2023-05-05T04:17:33.904Z,87.50
2023-05-05T04:20:01.069Z,87.30
2023-05-05T04:22:28.207Z,87.20
2023-05-05T04:24:55.274Z,87.10
2023-05-05T04:27:22.337Z,86.90
2023-05-05T04:29:49.414Z,86.70
2023-05-05T04:32:16.730Z,86.10
2023-05-05T04:34:43.851Z,86.50
2023-05-05T04:37:11.306Z,86.90
2023-05-05T04:39:38.379Z,86.30
2023-05-05T04:42:05.509Z,86.40
2023-05-05T04:44:33.936Z,86.20
2023-05-05T04:47:01.440Z,86.00
2023-05-05T04:49:31.982Z,86.20
2023-05-05T04:51:59.055Z,86.50
2023-05-05T04:54:26.247Z,85.60
2023-05-05T04:56:53.902Z,85.50
2023-05-05T04:59:20.947Z,86.10
2023-05-05T05:01:48.044Z,85.30
2023-05-05T05:04:18.320Z,85.50
2023-05-05T05:06:45.947Z,85.80
2023-05-05T05:09:13.204Z,85.50
2023-05-05T05:11:40.399Z,85.60
2023-05-05T05:14:07.469Z,85.70
2023-05-05T05:16:34.625Z,85.70
2023-05-05T05:19:02.018Z,85.70
2023-05-05T05:21:29.207Z,85.60
2023-05-05T05:23:56.326Z,85.60
2023-05-05T05:26:23.442Z,85.70
2023-05-05T05:28:50.506Z,85.80
2023-05-05T05:31:17.920Z,85.80
2023-05-05T05:33:45.134Z,85.80
2023-05-05T05:36:12.267Z,85.90
2023-05-05T05:38:39.305Z,85.70
2023-05-05T05:41:09.662Z,85.60
2023-05-05T05:43:36.762Z,85.50
2023-05-05T05:46:03.867Z,85.20
2023-05-05T05:48:31.045Z,85.20
2023-05-05T05:50:58.167Z,85.40
2023-05-05T05:53:25.242Z,85.10
2023-05-05T05:55:52.310Z,84.90
2023-05-05T05:58:19.654Z,85.30
2023-05-05T06:00:48.275Z,85.10
2023-05-05T06:03:15.769Z,85.20
2023-05-05T06:05:44.438Z,85.10
2023-05-05T06:08:11.484Z,85.30
2023-05-05T06:10:39.748Z,85.40
2023-05-05T06:13:06.932Z,85.60
2023-05-05T06:15:34.048Z,85.50
2023-05-05T06:18:01.271Z,85.70
2023-05-05T06:20:28.356Z,85.60
2023-05-05T06:22:55.624Z,85.50
2023-05-05T06:25:22.784Z,85.90
2023-05-05T06:27:49.839Z,85.90
2023-05-05T06:30:17.666Z,85.90
2023-05-05T06:32:44.825Z,85.80
2023-05-05T06:35:11.968Z,85.80
2023-05-05T06:37:39.462Z,85.80
2023-05-05T06:40:07.952Z,85.80
2023-05-05T06:42:35.876Z,85.80
2023-05-05T06:45:02.998Z,86.00
2023-05-05T06:47:30.089Z,86.00
2023-05-05T06:49:57.180Z,86.10
2023-05-05T06:52:25.855Z,86.20
2023-05-05T06:54:52.912Z,86.10
2023-05-05T06:57:19.966Z,86.10
2023-05-05T06:59:47.026Z,86.50
2023-05-05T07:02:14.086Z,87.00
2023-05-05T07:04:41.417Z,87.50
2023-05-05T07:07:08.495Z,87.90
2023-05-05T07:09:35.856Z,88.20
2023-05-05T07:12:03.606Z,88.50
2023-05-05T07:14:30.724Z,88.30
2023-05-05T07:16:57.938Z,84.60
2023-05-05T07:19:25.196Z,85.70
2023-05-05T07:21:52.239Z,86.20
2023-05-05T07:24:19.302Z,86.20
2023-05-05T07:26:46.548Z,86.50
2023-05-05T07:29:13.676Z,86.80
2023-05-05T07:31:40.764Z,87.10
2023-05-05T07:34:07.871Z,86.90
2023-05-05T07:36:35.054Z,87.10
2023-05-05T07:39:02.090Z,87.20
2023-05-05T07:41:29.185Z,86.90
2023-05-05T07:43:56.238Z,86.40
2023-05-05T07:46:23.359Z,86.70
2023-05-05T07:48:50.454Z,86.50
2023-05-05T07:51:17.550Z,86.60
2023-05-05T07:53:44.721Z,86.10
2023-05-05T07:56:11.809Z,86.10
2023-05-05T07:58:38.884Z,86.20
2023-05-05T08:01:06.864Z,86.10
2023-05-05T08:03:34.137Z,86.00
2023-05-05T08:06:08.644Z,86.00
2023-05-05T08:08:36.204Z,86.00
2023-05-05T08:11:04.007Z,86.00
2023-05-05T08:13:31.258Z,85.80
2023-05-05T08:15:58.390Z,85.90
2023-05-05T08:18:26.444Z,85.90
2023-05-05T08:20:54.546Z,86.10
2023-05-05T08:23:21.735Z,86.00
2023-05-05T08:25:49.521Z,86.10
2023-05-05T08:28:16.577Z,86.00
2023-05-05T08:30:44.155Z,86.10
2023-05-05T08:33:11.318Z,86.20
2023-05-05T08:35:38.493Z,86.00
2023-05-05T08:38:05.617Z,86.20
2023-05-05T08:40:36.502Z,87.00
2023-05-05T08:43:03.985Z,86.40
2023-05-05T08:45:32.002Z,86.20
2023-05-05T08:48:04.392Z,86.30
2023-05-05T08:50:32.451Z,86.50
2023-05-05T08:53:07.902Z,85.80
2023-05-05T08:55:38.979Z,86.20
2023-05-05T08:58:07.268Z,85.50
2023-05-05T09:00:34.871Z,84.90
2023-05-05T09:03:02.543Z,81.00
2023-05-05T09:05:30.009Z,81.70
2023-05-05T09:07:57.461Z,80.10
2023-05-05T09:10:25.836Z,82.50
2023-05-05T09:12:53.192Z,82.40
2023-05-05T09:15:20.387Z,84.20
2023-05-05T09:17:47.714Z,81.10
2023-05-05T09:20:15.510Z,80.70
2023-05-05T09:22:44.676Z,83.00
2023-05-05T09:25:21.625Z,80.60
2023-05-05T09:27:49.518Z,83.50
2023-05-05T09:30:18.449Z,78.50
2023-05-05T09:32:47.989Z,80.40
2023-05-05T09:35:16.564Z,79.00
2023-05-05T09:37:43.938Z,82.00
2023-05-05T09:40:16.793Z,82.80
2023-05-05T09:42:47.219Z,84.80
2023-05-05T09:45:17.295Z,85.90
2023-05-05T09:47:45.755Z,86.80
2023-05-05T09:50:18.519Z,87.60
2023-05-05T09:52:56.098Z,87.90
2023-05-05T09:55:24.659Z,88.30
2023-05-05T09:57:52.299Z,89.00
2023-05-05T10:00:20.296Z,89.90
2023-05-05T10:02:47.581Z,90.40
2023-05-05T10:05:16.477Z,90.70
2023-05-05T10:07:46.291Z,90.90
2023-05-05T10:10:18.042Z,90.90
2023-05-05T10:12:49.815Z,91.10
2023-05-05T10:15:18.043Z,91.00
2023-05-05T10:20:21.053Z,90.90
2023-05-05T10:22:55.033Z,91.00
2023-05-05T10:25:31.136Z,90.80
2023-05-05T10:28:00.851Z,91.30
2023-05-05T10:30:34.720Z,91.10
2023-05-05T10:33:30.746Z,91.10
2023-05-05T10:36:01.918Z,91.10
2023-05-05T10:38:32.153Z,91.00
2023-05-05T10:41:03.023Z,91.20
2023-05-05T10:43:31.360Z,91.20
2023-05-05T10:45:59.337Z,91.20
2023-05-05T10:48:49.936Z,91.20
2023-05-05T10:51:40.109Z,91.30
2023-05-05T10:54:22.045Z,91.10
2023-05-05T10:56:49.722Z,91.10
2023-05-05T10:59:35.631Z,91.10
2023-05-05T11:02:25.546Z,91.10
2023-05-05T11:05:05.863Z,91.10
2023-05-05T11:07:34.356Z,91.10
2023-05-05T11:10:03.336Z,91.20
2023-05-05T11:12:32.209Z,91.10
2023-05-05T11:15:24.222Z,91.40
2023-05-05T11:17:51.782Z,91.10
2023-05-05T11:20:39.875Z,91.00
2023-05-05T11:23:07.246Z,91.10
2023-05-05T11:25:37.521Z,91.10
2023-05-05T11:28:09.126Z,90.80
2023-05-05T11:30:57.883Z,90.90
2023-05-05T11:33:40.837Z,91.10
2023-05-05T11:36:09.211Z,91.20
2023-05-05T11:38:36.215Z,91.30
2023-05-05T11:41:17.180Z,91.20
2023-05-05T11:43:44.367Z,91.50
2023-05-05T11:46:12.678Z,91.20
2023-05-05T11:48:50.325Z,91.30
2023-05-05T11:51:18.032Z,91.20
2023-05-05T11:53:47.085Z,91.20
2023-05-05T11:56:20.373Z,91.10
2023-05-05T11:58:49.102Z,91.20
2023-05-05T12:01:16.619Z,91.50
2023-05-05T12:03:45.677Z,91.50
2023-05-05T12:06:13.219Z,91.50
2023-05-05T12:08:41.338Z,91.60
2023-05-05T12:11:09.829Z,91.50
2023-05-05T12:13:37.063Z,91.40
2023-05-05T12:16:11.484Z,91.50
2023-05-05T12:18:39.535Z,91.50
2023-05-05T12:21:19.750Z,91.40
2023-05-05T12:23:47.132Z,91.50
2023-05-05T12:26:28.869Z,91.50
2023-05-05T12:29:00.687Z,91.40
2023-05-05T12:31:38.849Z,91.30
2023-05-05T12:34:10.999Z,91.30
2023-05-05T12:36:39.381Z,91.00
2023-05-05T12:39:06.513Z,90.50
2023-05-05T12:41:34.153Z,91.10
2023-05-05T12:44:03.130Z,91.30
2023-05-05T12:46:31.741Z,91.40
2023-05-05T12:49:06.713Z,91.50
2023-05-05T12:51:35.892Z,91.90
2023-05-05T12:54:10.512Z,91.60
2023-05-05T12:56:40.589Z,92.10
2023-05-05T12:59:09.411Z,92.60
2023-05-05T13:01:53.887Z,92.50
2023-05-05T13:04:22.963Z,92.70
2023-05-05T13:07:07.790Z,92.90
2023-05-05T13:09:35.414Z,93.10
2023-05-05T13:12:03.737Z,92.80
2023-05-05T13:14:34.236Z,92.90
2023-05-05T13:17:01.356Z,92.90
2023-05-05T13:19:28.664Z,93.00
2023-05-05T13:21:56.902Z,93.20
2023-05-05T13:24:38.007Z,93.10
2023-05-05T13:27:12.523Z,93.10
2023-05-05T13:29:41.409Z,93.10
2023-05-05T13:32:08.490Z,93.20
2023-05-05T13:34:35.615Z,93.20
2023-05-05T13:37:02.685Z,93.30
2023-05-05T13:39:29.781Z,93.30
2023-05-05T13:41:56.891Z,93.30
2023-05-05T13:44:24.124Z,93.00
2023-05-05T13:46:51.226Z,93.00
2023-05-05T13:49:18.352Z,93.10
2023-05-05T13:51:46.747Z,93.20
2023-05-05T13:54:14.154Z,93.30
2023-05-05T13:56:41.273Z,93.40
2023-05-05T13:59:09.047Z,93.40
2023-05-05T14:01:36.234Z,93.40
2023-05-05T14:04:05.371Z,93.50
2023-05-05T14:06:33.452Z,93.40
2023-05-05T14:09:00.633Z,93.60
2023-05-05T14:11:27.902Z,93.50
2023-05-05T14:13:55.025Z,93.60
2023-05-05T14:16:22.223Z,93.50
2023-05-05T14:18:49.366Z,93.50
2023-05-05T14:21:16.670Z,93.60
2023-05-05T14:23:43.733Z,93.50
2023-05-05T14:26:10.854Z,93.60
2023-05-05T14:28:37.921Z,93.50
2023-05-05T14:31:05.387Z,93.40
2023-05-05T14:33:32.423Z,92.80
2023-05-05T14:35:59.831Z,92.40
2023-05-05T14:38:26.950Z,92.70
2023-05-05T14:40:54.153Z,92.90
2023-05-05T14:43:21.836Z,92.90
2023-05-05T14:45:49.007Z,92.90
2023-05-05T14:48:16.598Z,93.20
2023-05-05T14:50:46.237Z,93.10
2023-05-05T14:53:13.497Z,93.20
2023-05-05T14:55:40.683Z,93.30
2023-05-05T14:58:07.723Z,93.20
2023-05-05T15:00:34.782Z,92.80
2023-05-05T15:03:01.992Z,92.90
2023-05-05T15:05:29.123Z,93.00
2023-05-05T15:07:56.251Z,93.10
2023-05-05T15:10:23.434Z,93.20
2023-05-05T15:12:51.084Z,93.30
2023-05-05T15:15:18.252Z,93.50
2023-05-05T15:17:45.369Z,93.50
2023-05-05T15:20:12.592Z,93.60
2023-05-05T15:22:39.733Z,93.60
2023-05-05T15:25:12.156Z,93.70
2023-05-05T15:27:39.813Z,93.80
2023-05-05T15:30:07.733Z,93.90
2023-05-05T15:32:34.942Z,93.90
2023-05-05T15:35:02.128Z,94.00
2023-05-05T15:37:29.318Z,93.90
2023-05-05T15:39:56.855Z,94.00
2023-05-05T15:42:24.537Z,94.00
2023-05-05T15:44:51.696Z,94.00
2023-05-05T15:47:18.822Z,94.00
2023-05-05T15:49:46.126Z,94.00
2023-05-05T15:52:13.905Z,94.30
2023-05-05T15:54:41.350Z,94.10
2023-05-05T15:57:08.486Z,94.00
2023-05-05T15:59:35.872Z,94.00
2023-05-05T16:02:03.030Z,93.90
2023-05-05T16:04:30.353Z,93.90
2023-05-05T16:06:58.026Z,93.80
2023-05-05T16:09:25.193Z,93.80
2023-05-05T16:11:54.067Z,93.80
2023-05-05T16:14:21.315Z,93.60
2023-05-05T16:16:48.493Z,93.60
2023-05-05T16:19:15.866Z,93.60
2023-05-05T16:21:43.101Z,93.70
2023-05-05T16:24:10.616Z,93.70
2023-05-05T16:26:37.690Z,93.60
2023-05-05T16:29:04.770Z,93.80
2023-05-05T16:31:33.807Z,93.70
2023-05-05T16:34:01.048Z,93.80
2023-05-05T16:36:28.915Z,93.80
2023-05-05T16:38:56.493Z,93.70
2023-05-05T16:41:23.738Z,93.80
2023-05-05T16:43:50.841Z,93.80
2023-05-05T16:46:18.288Z,93.80
2023-05-05T16:48:45.943Z,93.90
2023-05-05T16:51:13.031Z,93.80
2023-05-05T16:53:40.097Z,93.80
2023-05-05T16:56:11.079Z,93.80
2023-05-05T16:58:38.211Z,93.80
2023-05-05T17:01:05.398Z,93.90
2023-05-05T17:03:32.578Z,93.80
2023-05-05T17:05:59.776Z,93.80
2023-05-05T17:08:26.888Z,93.80
2023-05-05T17:10:53.948Z,93.80
2023-05-05T17:13:22.919Z,93.70
2023-05-05T17:15:50.297Z,93.70
2023-05-05T17:18:20.065Z,93.60
2023-05-05T17:20:48.570Z,93.70
2023-05-05T17:23:16.539Z,93.80
2023-05-05T17:25:43.702Z,93.80
2023-05-05T17:28:10.838Z,93.80
2023-05-05T17:30:37.920Z,93.90
2023-05-05T17:33:05.048Z,93.70
2023-05-05T17:35:32.478Z,93.30
2023-05-05T17:37:59.599Z,92.70
2023-05-05T17:40:26.742Z,93.20
2023-05-05T17:42:53.824Z,92.70
2023-05-05T17:45:21.020Z,92.70
2023-05-05T17:47:48.115Z,92.50
2023-05-05T17:50:15.325Z,92.60
2023-05-05T17:52:43.752Z,92.50
2023-05-05T17:55:11.164Z,92.10
2023-05-05T17:57:38.729Z,92.40
2023-05-05T18:00:06.630Z,92.20
2023-05-05T18:02:39.336Z,92.20
2023-05-05T18:05:06.954Z,92.20
2023-05-05T18:07:34.602Z,92.20
2023-05-05T18:10:01.657Z,92.40
2023-05-05T18:12:28.728Z,92.50
2023-05-05T18:14:55.816Z,92.40
2023-05-05T18:17:22.882Z,92.50
2023-05-05T18:19:49.957Z,92.30
2023-05-05T18:22:17.374Z,92.60
2023-05-05T18:24:45.453Z,92.70
2023-05-05T18:27:12.777Z,92.70
2023-05-05T18:29:39.892Z,92.70
2023-05-05T18:32:07.035Z,92.70
2023-05-05T18:34:34.351Z,92.50
2023-05-05T18:37:01.480Z,92.40
2023-05-05T18:39:28.645Z,92.40
2023-05-05T18:41:55.890Z,92.60
2023-05-05T18:44:23.037Z,92.70
2023-05-05T18:46:50.158Z,92.80
2023-05-05T18:49:17.397Z,92.80
2023-05-05T18:51:44.473Z,92.70
2023-05-05T18:54:11.582Z,92.70
2023-05-05T18:56:38.690Z,92.60
2023-05-05T18:59:05.776Z,92.60
2023-05-05T19:01:32.993Z,92.50
2023-05-05T19:04:00.829Z,92.50
2023-05-05T19:06:27.961Z,92.40
2023-05-05T19:08:56.598Z,92.50
2023-05-05T19:11:24.308Z,92.50
2023-05-05T19:13:51.362Z,92.40
2023-05-05T19:16:18.565Z,92.30
2023-05-05T19:18:45.858Z,92.30
2023-05-05T19:21:12.942Z,92.30
2023-05-05T19:23:40.821Z,92.30
2023-05-05T19:26:07.916Z,92.20
2023-05-05T19:28:35.011Z,92.20
2023-05-05T19:31:02.181Z,92.10
2023-05-05T19:33:29.259Z,92.00
2023-05-05T19:35:56.471Z,92.00
2023-05-05T19:38:23.627Z,91.90
2023-05-05T19:40:50.968Z,92.10
2023-05-05T19:43:18.053Z,91.60
2023-05-05T19:45:45.113Z,91.60
2023-05-05T19:48:12.208Z,91.60
2023-05-05T19:50:39.378Z,91.60
2023-05-05T19:53:06.497Z,91.90
2023-05-05T19:55:33.585Z,91.60
2023-05-05T19:58:00.641Z,91.60
2023-05-05T20:00:27.880Z,91.50
2023-05-05T20:02:54.986Z,91.50
2023-05-05T20:05:22.265Z,91.40
2023-05-05T20:07:50.325Z,91.40
2023-05-05T20:10:17.824Z,91.30
2023-05-05T20:12:48.359Z,91.30
2023-05-05T20:15:20.195Z,91.30
2023-05-05T20:17:48.160Z,91.30
2023-05-05T20:20:17.508Z,91.30
2023-05-05T20:22:45.943Z,91.30
2023-05-05T20:25:14.625Z,91.30
2023-05-05T20:27:42.454Z,91.20
2023-05-05T20:30:10.664Z,91.10
2023-05-05T20:32:38.063Z,91.00
2023-05-05T20:35:06.073Z,91.00
2023-05-05T20:37:33.200Z,91.00
2023-05-05T20:40:00.362Z,90.90
2023-05-05T20:42:27.650Z,90.90
2023-05-05T20:44:54.900Z,91.00
2023-05-05T20:47:22.049Z,91.00
2023-05-05T20:49:49.098Z,90.90
2023-05-05T20:52:16.384Z,90.90
2023-05-05T20:54:43.460Z,90.90
2023-05-05T20:57:10.908Z,90.80
2023-05-05T20:59:38.349Z,90.80
2023-05-05T21:02:05.495Z,90.80
2023-05-05T21:04:32.713Z,90.80
2023-05-05T21:06:59.785Z,90.70
2023-05-05T21:09:26.959Z,90.70
2023-05-05T21:11:54.202Z,90.60
2023-05-05T21:14:21.856Z,90.60
2023-05-05T21:16:48.987Z,90.60
2023-05-05T21:19:16.319Z,90.60
2023-05-05T21:21:44.155Z,90.50
2023-05-05T21:24:12.904Z,90.50
2023-05-05T21:26:44.193Z,90.20
2023-05-05T21:29:12.082Z,90.20
2023-05-05T21:31:39.218Z,90.20
2023-05-05T21:34:06.304Z,90.20
2023-05-05T21:36:33.809Z,90.20
2023-05-05T21:39:01.076Z,90.10
2023-05-05T21:41:28.245Z,90.20
2023-05-05T21:43:55.808Z,90.10
2023-05-05T21:46:23.075Z,90.10
2023-05-05T21:48:50.294Z,90.20
2023-05-05T21:51:17.497Z,90.30
2023-05-05T21:53:44.743Z,90.20
2023-05-05T21:56:11.843Z,90.20
2023-05-05T21:58:40.034Z,90.20
2023-05-05T22:01:07.150Z,90.30
2023-05-05T22:03:35.206Z,90.30
2023-05-05T22:06:02.544Z,90.30
2023-05-05T22:08:29.616Z,90.30
2023-05-05T22:10:56.675Z,90.30
2023-05-05T22:13:23.823Z,90.30
2023-05-05T22:15:51.016Z,90.30
2023-05-05T22:18:18.204Z,90.30
2023-05-05T22:20:46.548Z,90.40
2023-05-05T22:23:13.988Z,90.30
2023-05-05T22:25:41.180Z,90.30
2023-05-05T22:28:08.251Z,90.30
2023-05-05T22:30:35.390Z,90.40
2023-05-05T22:33:02.659Z,90.40
2023-05-05T22:35:29.813Z,90.30
2023-05-05T22:37:56.995Z,90.30
2023-05-05T22:40:24.053Z,90.40
2023-05-05T22:42:51.189Z,90.40
2023-05-05T22:45:18.289Z,90.30
2023-05-05T22:47:47.380Z,90.20
2023-05-05T22:50:14.463Z,90.20
2023-05-05T22:52:41.760Z,90.20
2023-05-05T22:55:09.213Z,90.20
2023-05-05T22:57:36.705Z,90.20
2023-05-05T23:00:05.225Z,90.10
2023-05-05T23:02:32.431Z,90.10
2023-05-05T23:04:59.535Z,90.00
2023-05-05T23:07:26.721Z,90.00
2023-05-05T23:09:53.872Z,89.90
2023-05-05T23:12:20.952Z,89.80
2023-05-05T23:14:49.817Z,89.80
2023-05-05T23:17:16.867Z,89.70
2023-05-05T23:19:47.677Z,89.90
2023-05-05T23:22:14.858Z,89.70
2023-05-05T23:24:41.999Z,89.80
2023-05-05T23:27:09.180Z,89.80
2023-05-05T23:29:36.291Z,89.80
2023-05-05T23:32:03.377Z,90.00
2023-05-05T23:34:30.430Z,89.20
2023-05-05T23:36:57.635Z,88.60
2023-05-05T23:39:24.710Z,87.90
2023-05-05T23:41:51.789Z,88.30
2023-05-05T23:44:18.943Z,88.60
2023-05-05T23:46:46.403Z,87.90
2023-05-05T23:49:13.456Z,88.10
2023-05-05T23:51:40.555Z,89.20
2023-05-05T23:54:07.629Z,89.50
2023-05-05T23:56:34.721Z,89.50
2023-05-05T23:59:01.765Z,89.40
